sensor_id;sensor_type;location;lat;lon;timestamp;temperature;humidity
51476;DHT22;37554;50.362;7.568;2023-04-01T00:01:46;18.50;51.90
51476;DHT22;37554;50.362;7.568;2023-04-01T00:04:11;18.50;51.90
51476;DHT22;37554;50.362;7.568;2023-04-01T00:06:37;18.50;51.90
51476;DHT22;37554;50.362;7.568;2023-04-01T00:09:03;18.50;51.90
51476;DHT22;37554;50.362;7.568;2023-04-01T00:11:29;18.40;51.90
51476;DHT22;37554;50.362;7.568;2023-04-01T00:13:54;18.40;51.90
51476;DHT22;37554;50.362;7.568;2023-04-01T00:16:22;18.40;51.90
51476;DHT22;37554;50.362;7.568;2023-04-01T00:18:48;18.40;52.00
51476;DHT22;37554;50.362;7.568;2023-04-01T00:21:15;18.40;52.00
51476;DHT22;37554;50.362;7.568;2023-04-01T00:23:41;18.40;52.00
51476;DHT22;37554;50.362;7.568;2023-04-01T00:26:07;18.40;52.00
51476;DHT22;37554;50.362;7.568;2023-04-01T00:28:34;18.40;52.00
51476;DHT22;37554;50.362;7.568;2023-04-01T00:31:05;18.30;51.90
51476;DHT22;37554;50.362;7.568;2023-04-01T00:33:31;18.30;52.00
51476;DHT22;37554;50.362;7.568;2023-04-01T00:36:09;18.30;52.10
51476;DHT22;37554;50.362;7.568;2023-04-01T00:38:35;18.30;52.00
51476;DHT22;37554;50.362;7.568;2023-04-01T00:41:01;18.30;52.10
51476;DHT22;37554;50.362;7.568;2023-04-01T00:43:27;18.30;52.00
51476;DHT22;37554;50.362;7.568;2023-04-01T00:45:52;18.30;52.10
51476;DHT22;37554;50.362;7.568;2023-04-01T00:48:22;18.20;52.10
51476;DHT22;37554;50.362;7.568;2023-04-01T00:51:09;18.20;52.10
51476;DHT22;37554;50.362;7.568;2023-04-01T00:53:39;18.20;52.10
51476;DHT22;37554;50.362;7.568;2023-04-01T00:56:17;18.20;52.10
51476;DHT22;37554;50.362;7.568;2023-04-01T00:58:47;18.20;52.20
51476;DHT22;37554;50.362;7.568;2023-04-01T01:01:14;18.20;52.20
51476;DHT22;37554;50.362;7.568;2023-04-01T01:03:40;18.20;52.20
51476;DHT22;37554;50.362;7.568;2023-04-01T01:22:52;18.10;52.30
51476;DHT22;37554;50.362;7.568;2023-04-01T01:25:34;18.10;52.30
51476;DHT22;37554;50.362;7.568;2023-04-01T01:28:25;18.00;52.20
51476;DHT22;37554;50.362;7.568;2023-04-01T01:34:21;18.00;52.20
51476;DHT22;37554;50.362;7.568;2023-04-01T01:36:53;18.00;52.40
51476;DHT22;37554;50.362;7.568;2023-04-01T01:39:20;18.00;52.20
51476;DHT22;37554;50.362;7.568;2023-04-01T01:41:52;18.00;52.30
51476;DHT22;37554;50.362;7.568;2023-04-01T01:44:19;18.00;52.30
51476;DHT22;37554;50.362;7.568;2023-04-01T01:46:47;18.00;52.40
51476;DHT22;37554;50.362;7.568;2023-04-01T01:49:14;18.00;52.40
51476;DHT22;37554;50.362;7.568;2023-04-01T01:51:40;18.00;52.40
51476;DHT22;37554;50.362;7.568;2023-04-01T01:54:16;18.00;52.40
51476;DHT22;37554;50.362;7.568;2023-04-01T01:56:45;17.90;52.40
51476;DHT22;37554;50.362;7.568;2023-04-01T01:59:11;17.90;52.40
51476;DHT22;37554;50.362;7.568;2023-04-01T02:01:41;17.90;52.40
51476;DHT22;37554;50.362;7.568;2023-04-01T02:04:10;17.90;52.50
51476;DHT22;37554;50.362;7.568;2023-04-01T02:06:39;17.90;52.50
51476;DHT22;37554;50.362;7.568;2023-04-01T02:09:08;17.90;52.50
51476;DHT22;37554;50.362;7.568;2023-04-01T02:11:47;17.80;52.50
51476;DHT22;37554;50.362;7.568;2023-04-01T02:14:26;17.80;52.50
51476;DHT22;37554;50.362;7.568;2023-04-01T02:17:56;17.80;52.50
51476;DHT22;37554;50.362;7.568;2023-04-01T02:19:55;17.80;52.50
51476;DHT22;37554;50.362;7.568;2023-04-01T02:22:25;17.80;52.60
51476;DHT22;37554;50.362;7.568;2023-04-01T02:24:54;17.80;52.50
51476;DHT22;37554;50.362;7.568;2023-04-01T02:27:22;17.80;52.60
51476;DHT22;37554;50.362;7.568;2023-04-01T02:29:49;17.80;52.60
51476;DHT22;37554;50.362;7.568;2023-04-01T02:32:16;17.80;52.60
51476;DHT22;37554;50.362;7.568;2023-04-01T02:34:43;17.80;52.60
51476;DHT22;37554;50.362;7.568;2023-04-01T02:37:09;17.70;52.50
51476;DHT22;37554;50.362;7.568;2023-04-01T02:39:35;17.70;52.60
51476;DHT22;37554;50.362;7.568;2023-04-01T02:42:01;17.70;53.20
51476;DHT22;37554;50.362;7.568;2023-04-01T02:44:27;17.70;52.60
51476;DHT22;37554;50.362;7.568;2023-04-01T02:46:52;17.70;52.60
51476;DHT22;37554;50.362;7.568;2023-04-01T02:49:18;17.70;52.60
51476;DHT22;37554;50.362;7.568;2023-04-01T02:51:44;17.70;52.70
51476;DHT22;37554;50.362;7.568;2023-04-01T02:54:09;17.70;52.70
51476;DHT22;37554;50.362;7.568;2023-04-01T02:56:35;17.70;52.70
51476;DHT22;37554;50.362;7.568;2023-04-01T02:59:00;17.70;52.70
51476;DHT22;37554;50.362;7.568;2023-04-01T03:01:26;17.70;52.80
51476;DHT22;37554;50.362;7.568;2023-04-01T03:03:52;17.60;52.70
51476;DHT22;37554;50.362;7.568;2023-04-01T03:06:17;17.70;53.30
51476;DHT22;37554;50.362;7.568;2023-04-01T03:08:44;17.60;52.70
51476;DHT22;37554;50.362;7.568;2023-04-01T03:11:10;17.60;52.70
51476;DHT22;37554;50.362;7.568;2023-04-01T03:13:36;17.70;52.80
51476;DHT22;37554;50.362;7.568;2023-04-01T03:16:02;17.60;52.80
51476;DHT22;37554;50.362;7.568;2023-04-01T03:18:28;17.60;52.80
51476;DHT22;37554;50.362;7.568;2023-04-01T03:20:54;17.60;53.50
51476;DHT22;37554;50.362;7.568;2023-04-01T03:23:19;17.60;52.80
51476;DHT22;37554;50.362;7.568;2023-04-01T03:25:47;17.60;52.80
51476;DHT22;37554;50.362;7.568;2023-04-01T03:28:12;17.60;52.90
51476;DHT22;37554;50.362;7.568;2023-04-01T03:30:39;17.60;52.90
51476;DHT22;37554;50.362;7.568;2023-04-01T03:33:05;17.50;52.80
51476;DHT22;37554;50.362;7.568;2023-04-01T03:35:31;17.50;52.90
51476;DHT22;37554;50.362;7.568;2023-04-01T03:37:56;17.50;52.90
51476;DHT22;37554;50.362;7.568;2023-04-01T03:40:22;17.50;52.90
51476;DHT22;37554;50.362;7.568;2023-04-01T03:42:49;17.50;52.90
51476;DHT22;37554;50.362;7.568;2023-04-01T03:45:15;17.50;53.00
51476;DHT22;37554;50.362;7.568;2023-04-01T03:47:41;17.50;53.00
51476;DHT22;37554;50.362;7.568;2023-04-01T03:50:41;17.50;53.00
51476;DHT22;37554;50.362;7.568;2023-04-01T03:53:06;17.50;53.10
51476;DHT22;37554;50.362;7.568;2023-04-01T03:55:32;17.50;53.10
51476;DHT22;37554;50.362;7.568;2023-04-01T03:57:59;17.50;53.00
51476;DHT22;37554;50.362;7.568;2023-04-01T04:00:25;17.40;53.00
51476;DHT22;37554;50.362;7.568;2023-04-01T04:02:50;17.40;53.00
51476;DHT22;37554;50.362;7.568;2023-04-01T04:05:16;17.40;53.10
51476;DHT22;37554;50.362;7.568;2023-04-01T04:07:41;17.40;53.10
51476;DHT22;37554;50.362;7.568;2023-04-01T04:10:07;17.40;53.10
51476;DHT22;37554;50.362;7.568;2023-04-01T04:12:33;17.40;53.10
51476;DHT22;37554;50.362;7.568;2023-04-01T04:14:59;17.40;53.10
51476;DHT22;37554;50.362;7.568;2023-04-01T04:17:24;17.40;53.10
51476;DHT22;37554;50.362;7.568;2023-04-01T04:19:50;17.40;53.20
51476;DHT22;37554;50.362;7.568;2023-04-01T04:22:15;17.40;53.20
51476;DHT22;37554;50.362;7.568;2023-04-01T04:24:41;17.40;53.20
51476;DHT22;37554;50.362;7.568;2023-04-01T04:27:07;17.40;53.20
51476;DHT22;37554;50.362;7.568;2023-04-01T04:29:33;17.30;53.20
51476;DHT22;37554;50.362;7.568;2023-04-01T04:31:58;17.30;53.20
51476;DHT22;37554;50.362;7.568;2023-04-01T04:34:24;17.40;53.30
51476;DHT22;37554;50.362;7.568;2023-04-01T04:36:49;17.30;53.30
51476;DHT22;37554;50.362;7.568;2023-04-01T04:39:21;17.30;53.20
51476;DHT22;37554;50.362;7.568;2023-04-01T04:41:46;17.30;53.20
51476;DHT22;37554;50.362;7.568;2023-04-01T04:44:12;17.30;53.30
51476;DHT22;37554;50.362;7.568;2023-04-01T04:46:38;17.30;53.30
51476;DHT22;37554;50.362;7.568;2023-04-01T04:49:05;17.30;53.30
51476;DHT22;37554;50.362;7.568;2023-04-01T04:51:31;17.30;53.30
51476;DHT22;37554;50.362;7.568;2023-04-01T04:53:59;17.30;54.00
51476;DHT22;37554;50.362;7.568;2023-04-01T04:56:26;17.30;53.40
51476;DHT22;37554;50.362;7.568;2023-04-01T04:58:52;17.30;53.40
51476;DHT22;37554;50.362;7.568;2023-04-01T05:01:18;17.30;53.40
51476;DHT22;37554;50.362;7.568;2023-04-01T05:03:44;17.20;53.40
51476;DHT22;37554;50.362;7.568;2023-04-01T05:06:12;17.20;53.40
51476;DHT22;37554;50.362;7.568;2023-04-01T05:08:38;17.20;53.40
51476;DHT22;37554;50.362;7.568;2023-04-01T05:11:07;17.20;53.40
51476;DHT22;37554;50.362;7.568;2023-04-01T05:13:36;17.20;53.50
51476;DHT22;37554;50.362;7.568;2023-04-01T05:16:02;17.20;53.40
51476;DHT22;37554;50.362;7.568;2023-04-01T05:18:28;17.20;53.50
51476;DHT22;37554;50.362;7.568;2023-04-01T05:20:54;17.20;53.50
51476;DHT22;37554;50.362;7.568;2023-04-01T05:23:22;17.20;53.50
51476;DHT22;37554;50.362;7.568;2023-04-01T05:25:48;17.20;53.50
51476;DHT22;37554;50.362;7.568;2023-04-01T05:28:15;17.20;53.60
51476;DHT22;37554;50.362;7.568;2023-04-01T05:30:41;17.20;53.60
51476;DHT22;37554;50.362;7.568;2023-04-01T05:33:08;17.20;53.60
51476;DHT22;37554;50.362;7.568;2023-04-01T05:35:34;17.20;53.70
51476;DHT22;37554;50.362;7.568;2023-04-01T05:37:59;17.10;53.60
51476;DHT22;37554;50.362;7.568;2023-04-01T05:40:25;17.10;53.70
51476;DHT22;37554;50.362;7.568;2023-04-01T05:42:51;17.10;53.70
51476;DHT22;37554;50.362;7.568;2023-04-01T05:45:16;17.10;53.70
51476;DHT22;37554;50.362;7.568;2023-04-01T05:47:43;17.10;53.80
51476;DHT22;37554;50.362;7.568;2023-04-01T05:50:10;17.10;53.80
51476;DHT22;37554;50.362;7.568;2023-04-01T05:52:36;17.10;53.90
51476;DHT22;37554;50.362;7.568;2023-04-01T05:55:30;17.10;53.90
51476;DHT22;37554;50.362;7.568;2023-04-01T05:58:05;17.10;54.70
51476;DHT22;37554;50.362;7.568;2023-04-01T06:00:40;17.10;54.30
51476;DHT22;37554;50.362;7.568;2023-04-01T06:03:06;17.10;54.00
51476;DHT22;37554;50.362;7.568;2023-04-01T06:05:42;17.10;54.00
51476;DHT22;37554;50.362;7.568;2023-04-01T06:08:13;17.10;54.10
51476;DHT22;37554;50.362;7.568;2023-04-01T06:18:10;17.20;54.40
51476;DHT22;37554;50.362;7.568;2023-04-01T06:23:20;17.20;54.20
51476;DHT22;37554;50.362;7.568;2023-04-01T06:34:11;17.20;54.20
51476;DHT22;37554;50.362;7.568;2023-04-01T06:43:05;17.20;54.50
51476;DHT22;37554;50.362;7.568;2023-04-01T06:45:44;17.20;54.40
51476;DHT22;37554;50.362;7.568;2023-04-01T06:54:58;17.20;54.50
51476;DHT22;37554;50.362;7.568;2023-04-01T06:57:43;17.20;54.30
51476;DHT22;37554;50.362;7.568;2023-04-01T07:00:27;17.20;54.30
51476;DHT22;37554;50.362;7.568;2023-04-01T07:05:43;17.20;54.30
51476;DHT22;37554;50.362;7.568;2023-04-01T07:08:13;17.20;54.40
51476;DHT22;37554;50.362;7.568;2023-04-01T07:10:46;17.20;54.50
51476;DHT22;37554;50.362;7.568;2023-04-01T07:13:23;17.20;54.50
51476;DHT22;37554;50.362;7.568;2023-04-01T07:18:37;17.20;54.50
51476;DHT22;37554;50.362;7.568;2023-04-01T07:21:04;17.20;54.50
51476;DHT22;37554;50.362;7.568;2023-04-01T07:23:41;17.20;54.40
51476;DHT22;37554;50.362;7.568;2023-04-01T07:26:20;17.20;54.50
51476;DHT22;37554;50.362;7.568;2023-04-01T07:28:51;17.30;54.50
51476;DHT22;37554;50.362;7.568;2023-04-01T07:34:01;17.30;54.60
51476;DHT22;37554;50.362;7.568;2023-04-01T07:36:48;17.30;54.50
51476;DHT22;37554;50.362;7.568;2023-04-01T07:44:35;17.30;54.40
51476;DHT22;37554;50.362;7.568;2023-04-01T08:00:30;17.40;54.80
51476;DHT22;37554;50.362;7.568;2023-04-01T08:03:16;17.40;54.70
51476;DHT22;37554;50.362;7.568;2023-04-01T08:06:17;17.40;54.80
51476;DHT22;37554;50.362;7.568;2023-04-01T08:14:51;17.40;54.90
51476;DHT22;37554;50.362;7.568;2023-04-01T08:17:07;17.40;55.00
51476;DHT22;37554;50.362;7.568;2023-04-01T08:22:33;17.40;55.20
51476;DHT22;37554;50.362;7.568;2023-04-01T08:25:04;17.50;55.20
51476;DHT22;37554;50.362;7.568;2023-04-01T08:27:46;17.50;55.10
51476;DHT22;37554;50.362;7.568;2023-04-01T08:30:40;17.60;55.30
51476;DHT22;37554;50.362;7.568;2023-04-01T08:33:22;17.60;55.20
51476;DHT22;37554;50.362;7.568;2023-04-01T08:36:19;17.60;55.00
51476;DHT22;37554;50.362;7.568;2023-04-01T08:44:58;17.70;55.10
51476;DHT22;37554;50.362;7.568;2023-04-01T08:50:52;17.80;55.30
51476;DHT22;37554;50.362;7.568;2023-04-01T08:56:22;17.80;55.30
51476;DHT22;37554;50.362;7.568;2023-04-01T09:07:04;17.90;55.40
51476;DHT22;37554;50.362;7.568;2023-04-01T09:15:30;17.80;55.60
51476;DHT22;37554;50.362;7.568;2023-04-01T09:21:12;17.80;55.80
51476;DHT22;37554;50.362;7.568;2023-04-01T09:27:13;17.80;55.80
51476;DHT22;37554;50.362;7.568;2023-04-01T09:38:01;17.90;55.90
51476;DHT22;37554;50.362;7.568;2023-04-01T09:54:13;18.20;55.90
51476;DHT22;37554;50.362;7.568;2023-04-01T10:38:15;18.30;55.90
51476;DHT22;37554;50.362;7.568;2023-04-01T10:47:32;18.30;55.90
51476;DHT22;37554;50.362;7.568;2023-04-01T11:01:38;18.40;55.90
51476;DHT22;37554;50.362;7.568;2023-04-01T11:23:12;18.50;55.70
51476;DHT22;37554;50.362;7.568;2023-04-01T11:26:02;18.50;55.70
51476;DHT22;37554;50.362;7.568;2023-04-01T11:31:37;18.60;55.60
51476;DHT22;37554;50.362;7.568;2023-04-01T11:37:19;18.60;55.50
51476;DHT22;37554;50.362;7.568;2023-04-01T12:04:51;18.90;54.50
51476;DHT22;37554;50.362;7.568;2023-04-01T12:10:13;19.00;54.50
51476;DHT22;37554;50.362;7.568;2023-04-01T12:21:23;19.00;54.10
51476;DHT22;37554;50.362;7.568;2023-04-01T12:33:18;19.10;53.80
51476;DHT22;37554;50.362;7.568;2023-04-01T12:42:05;19.20;53.60
51476;DHT22;37554;50.362;7.568;2023-04-01T12:47:37;19.30;53.50
51476;DHT22;37554;50.362;7.568;2023-04-01T12:53:10;19.30;53.40
51476;DHT22;37554;50.362;7.568;2023-04-01T12:55:38;19.30;53.40
51476;DHT22;37554;50.362;7.568;2023-04-01T13:22:52;19.20;53.40
51476;DHT22;37554;50.362;7.568;2023-04-01T13:25:36;19.20;53.40
51476;DHT22;37554;50.362;7.568;2023-04-01T13:28:21;19.20;53.50
51476;DHT22;37554;50.362;7.568;2023-04-01T13:31:09;19.20;53.50
51476;DHT22;37554;50.362;7.568;2023-04-01T13:33:56;19.20;53.50
51476;DHT22;37554;50.362;7.568;2023-04-01T13:36:48;19.20;53.50
51476;DHT22;37554;50.362;7.568;2023-04-01T13:42:23;19.30;53.40
51476;DHT22;37554;50.362;7.568;2023-04-01T13:45:00;19.40;53.40
51476;DHT22;37554;50.362;7.568;2023-04-01T13:50:02;19.50;53.30
51476;DHT22;37554;50.362;7.568;2023-04-01T14:01:25;19.30;54.10
51476;DHT22;37554;50.362;7.568;2023-04-01T14:06:35;19.20;53.70
51476;DHT22;37554;50.362;7.568;2023-04-01T14:09:11;19.20;53.80
51476;DHT22;37554;50.362;7.568;2023-04-01T14:38:04;19.60;53.30
51476;DHT22;37554;50.362;7.568;2023-04-01T14:48:29;19.80;52.80
51476;DHT22;37554;50.362;7.568;2023-04-01T14:53:37;20.10;52.30
51476;DHT22;37554;50.362;7.568;2023-04-01T14:56:08;20.20;52.00
51476;DHT22;37554;50.362;7.568;2023-04-01T14:58:43;20.20;51.80
51476;DHT22;37554;50.362;7.568;2023-04-01T15:09:47;20.20;51.70
51476;DHT22;37554;50.362;7.568;2023-04-01T15:12:34;20.10;51.60
51476;DHT22;37554;50.362;7.568;2023-04-01T15:18:12;20.10;51.60
51476;DHT22;37554;50.362;7.568;2023-04-01T15:20:59;20.10;51.60
51476;DHT22;37554;50.362;7.568;2023-04-01T15:34:57;20.20;51.20
51476;DHT22;37554;50.362;7.568;2023-04-01T15:49:39;20.00;51.50
51476;DHT22;37554;50.362;7.568;2023-04-01T16:00:27;19.90;51.60
51476;DHT22;37554;50.362;7.568;2023-04-01T16:20:25;19.70;51.40
51476;DHT22;37554;50.362;7.568;2023-04-01T16:25:52;19.70;51.40
51476;DHT22;37554;50.362;7.568;2023-04-01T16:28:42;19.70;51.40
51476;DHT22;37554;50.362;7.568;2023-04-01T16:31:25;19.70;51.30
51476;DHT22;37554;50.362;7.568;2023-04-01T16:36:43;19.70;51.40
51476;DHT22;37554;50.362;7.568;2023-04-01T16:39:26;19.70;51.50
51476;DHT22;37554;50.362;7.568;2023-04-01T16:45:19;19.60;51.40
51476;DHT22;37554;50.362;7.568;2023-04-01T16:48:15;19.60;51.40
51476;DHT22;37554;50.362;7.568;2023-04-01T16:51:03;19.60;51.50
51476;DHT22;37554;50.362;7.568;2023-04-01T16:53:45;19.60;51.50
51476;DHT22;37554;50.362;7.568;2023-04-01T16:59:03;19.60;51.70
51476;DHT22;37554;50.362;7.568;2023-04-01T17:02:07;19.50;51.80
51476;DHT22;37554;50.362;7.568;2023-04-01T17:17:57;19.40;52.00
51476;DHT22;37554;50.362;7.568;2023-04-01T17:23:45;19.20;52.00
51476;DHT22;37554;50.362;7.568;2023-04-01T17:28:59;19.10;52.20
51476;DHT22;37554;50.362;7.568;2023-04-01T17:32:08;19.10;52.20
51476;DHT22;37554;50.362;7.568;2023-04-01T17:37:19;19.00;52.30
51476;DHT22;37554;50.362;7.568;2023-04-01T17:40:05;19.00;52.30
51476;DHT22;37554;50.362;7.568;2023-04-01T17:42:48;18.90;52.30
51476;DHT22;37554;50.362;7.568;2023-04-01T17:45:24;18.90;52.40
51476;DHT22;37554;50.362;7.568;2023-04-01T17:48:17;18.90;52.40
51476;DHT22;37554;50.362;7.568;2023-04-01T17:54:34;18.80;52.50
51476;DHT22;37554;50.362;7.568;2023-04-01T17:56:45;18.80;52.50
51476;DHT22;37554;50.362;7.568;2023-04-01T17:59:36;18.80;52.60
51476;DHT22;37554;50.362;7.568;2023-04-01T18:02:27;18.80;52.60
51476;DHT22;37554;50.362;7.568;2023-04-01T18:13:29;18.60;52.80
51476;DHT22;37554;50.362;7.568;2023-04-01T18:21:29;18.60;52.90
51476;DHT22;37554;50.362;7.568;2023-04-01T18:24:02;18.60;52.90
51476;DHT22;37554;50.362;7.568;2023-04-01T18:26:33;18.60;53.00
51476;DHT22;37554;50.362;7.568;2023-04-01T18:29:11;18.50;53.10
51476;DHT22;37554;50.362;7.568;2023-04-01T18:31:42;18.50;53.20
51476;DHT22;37554;50.362;7.568;2023-04-01T18:34:17;18.50;54.00
51476;DHT22;37554;50.362;7.568;2023-04-01T18:37:00;18.50;53.50
51476;DHT22;37554;50.362;7.568;2023-04-01T18:39:37;18.50;53.60
51476;DHT22;37554;50.362;7.568;2023-04-01T18:42:15;18.50;53.70
51476;DHT22;37554;50.362;7.568;2023-04-01T18:44:59;18.50;53.70
51476;DHT22;37554;50.362;7.568;2023-04-01T18:47:43;18.50;54.00
51476;DHT22;37554;50.362;7.568;2023-04-01T18:53:19;18.40;54.20
51476;DHT22;37554;50.362;7.568;2023-04-01T18:55:59;18.40;54.50
51476;DHT22;37554;50.362;7.568;2023-04-01T18:59:38;18.40;54.30
51476;DHT22;37554;50.362;7.568;2023-04-01T19:01:49;18.30;54.90
51476;DHT22;37554;50.362;7.568;2023-04-01T19:04:30;18.30;54.60
51476;DHT22;37554;50.362;7.568;2023-04-01T19:07:02;18.40;54.90
51476;DHT22;37554;50.362;7.568;2023-04-01T19:09:45;18.30;54.90
51476;DHT22;37554;50.362;7.568;2023-04-01T19:12:24;18.30;54.90
51476;DHT22;37554;50.362;7.568;2023-04-01T19:15:00;18.30;55.10
51476;DHT22;37554;50.362;7.568;2023-04-01T19:21:04;18.30;55.90
51476;DHT22;37554;50.362;7.568;2023-04-01T19:26:56;18.30;55.90
51476;DHT22;37554;50.362;7.568;2023-04-01T19:32:22;18.20;55.80
51476;DHT22;37554;50.362;7.568;2023-04-01T19:35:13;18.20;55.70
51476;DHT22;37554;50.362;7.568;2023-04-01T19:43:03;18.20;56.00
51476;DHT22;37554;50.362;7.568;2023-04-01T19:54:34;18.10;57.00
51476;DHT22;37554;50.362;7.568;2023-04-01T20:02:26;18.10;56.90
51476;DHT22;37554;50.362;7.568;2023-04-01T20:04:56;18.00;56.50
51476;DHT22;37554;50.362;7.568;2023-04-01T20:07:39;18.00;56.60
51476;DHT22;37554;50.362;7.568;2023-04-01T20:16:05;18.00;56.90
51476;DHT22;37554;50.362;7.568;2023-04-01T20:21:19;18.00;56.90
51476;DHT22;37554;50.362;7.568;2023-04-01T20:23:54;17.90;57.00
51476;DHT22;37554;50.362;7.568;2023-04-01T20:26:22;17.90;57.00
51476;DHT22;37554;50.362;7.568;2023-04-01T20:32:06;17.90;57.30
51476;DHT22;37554;50.362;7.568;2023-04-01T20:34:59;17.90;57.10
51476;DHT22;37554;50.362;7.568;2023-04-01T20:37:42;17.90;57.20
51476;DHT22;37554;50.362;7.568;2023-04-01T20:43:24;17.80;57.00
51476;DHT22;37554;50.362;7.568;2023-04-01T20:51:30;17.80;56.70
51476;DHT22;37554;50.362;7.568;2023-04-01T20:57:09;17.80;56.70
51476;DHT22;37554;50.362;7.568;2023-04-01T21:11:28;17.70;56.30
51476;DHT22;37554;50.362;7.568;2023-04-01T21:14:27;17.70;56.30
51476;DHT22;37554;50.362;7.568;2023-04-01T21:17:07;17.70;56.20
51476;DHT22;37554;50.362;7.568;2023-04-01T21:25:36;17.70;56.10
51476;DHT22;37554;50.362;7.568;2023-04-01T21:28:40;17.70;56.10
51476;DHT22;37554;50.362;7.568;2023-04-01T21:33:51;17.60;55.90
51476;DHT22;37554;50.362;7.568;2023-04-01T21:50:53;17.60;55.90
51476;DHT22;37554;50.362;7.568;2023-04-01T21:59:21;17.50;55.80
51476;DHT22;37554;50.362;7.568;2023-04-01T22:02:17;17.50;55.80
51476;DHT22;37554;50.362;7.568;2023-04-01T22:04:56;17.50;55.80
51476;DHT22;37554;50.362;7.568;2023-04-01T22:07:45;17.50;55.70
51476;DHT22;37554;50.362;7.568;2023-04-01T22:13:39;17.40;55.60
51476;DHT22;37554;50.362;7.568;2023-04-01T22:18:54;17.40;55.60
51476;DHT22;37554;50.362;7.568;2023-04-01T22:29:31;17.40;55.60
51476;DHT22;37554;50.362;7.568;2023-04-01T22:31:59;17.40;55.60
51476;DHT22;37554;50.362;7.568;2023-04-01T22:34:34;17.40;55.60
51476;DHT22;37554;50.362;7.568;2023-04-01T22:39:50;17.40;55.50
51476;DHT22;37554;50.362;7.568;2023-04-01T22:42:46;17.40;55.60
51476;DHT22;37554;50.362;7.568;2023-04-01T22:53:41;17.30;55.60
51476;DHT22;37554;50.362;7.568;2023-04-01T22:56:17;17.30;55.60
51476;DHT22;37554;50.362;7.568;2023-04-01T22:59:00;17.30;55.50
51476;DHT22;37554;50.362;7.568;2023-04-01T23:01:32;17.30;55.50
51476;DHT22;37554;50.362;7.568;2023-04-01T23:04:03;17.30;55.50
51476;DHT22;37554;50.362;7.568;2023-04-01T23:06:35;17.20;55.50
51476;DHT22;37554;50.362;7.568;2023-04-01T23:09:14;17.20;55.50
51476;DHT22;37554;50.362;7.568;2023-04-01T23:12:07;17.20;55.60
51476;DHT22;37554;50.362;7.568;2023-04-01T23:14:38;17.20;55.70
51476;DHT22;37554;50.362;7.568;2023-04-01T23:17:16;17.20;55.60
51476;DHT22;37554;50.362;7.568;2023-04-01T23:20:07;17.20;55.70
51476;DHT22;37554;50.362;7.568;2023-04-01T23:23:05;17.20;55.90
51476;DHT22;37554;50.362;7.568;2023-04-01T23:31:40;17.20;55.90
51476;DHT22;37554;50.362;7.568;2023-04-01T23:36:43;17.10;55.90
51476;DHT22;37554;50.362;7.568;2023-04-01T23:39:45;17.10;55.90
51476;DHT22;37554;50.362;7.568;2023-04-01T23:42:23;17.10;56.20
51476;DHT22;37554;50.362;7.568;2023-04-01T23:44:52;17.10;56.10
51476;DHT22;37554;50.362;7.568;2023-04-01T23:47:39;17.10;56.80
51476;DHT22;37554;50.362;7.568;2023-04-01T23:50:12;17.10;56.30
51476;DHT22;37554;50.362;7.568;2023-04-01T23:52:42;17.00;56.10
51476;DHT22;37554;50.362;7.568;2023-04-01T23:55:15;17.10;56.30
